createdAt,value
2018-08-16T00:00:32.079Z,99.90
2018-08-16T00:03:01.425Z,99.90
2018-08-16T00:05:30.749Z,99.90
2018-08-16T00:08:00.010Z,99.90
2018-08-16T00:10:29.237Z,99.90
2018-08-16T00:12:58.428Z,99.90
2018-08-16T00:15:27.561Z,99.90
2018-08-16T00:17:56.762Z,99.90
2018-08-16T00:20:25.903Z,99.90
2018-08-16T00:22:55.113Z,99.90
2018-08-16T00:25:24.332Z,99.90
2018-08-16T00:27:53.503Z,99.90
2018-08-16T00:30:22.693Z,99.90
2018-08-16T00:32:51.878Z,99.90
2018-08-16T00:35:21.071Z,99.90
2018-08-16T00:37:50.275Z,99.90
2018-08-16T00:40:19.485Z,99.90
2018-08-16T00:42:48.701Z,99.90
2018-08-16T00:45:17.915Z,99.90
2018-08-16T00:47:47.169Z,99.90
2018-08-16T00:50:16.757Z,99.90
2018-08-16T00:52:45.925Z,99.90
2018-08-16T00:55:15.481Z,99.90
2018-08-16T00:57:44.651Z,99.90
2018-08-16T01:00:15.705Z,99.90
2018-08-16T01:02:45.301Z,99.90
2018-08-16T01:05:14.677Z,99.90
2018-08-16T01:07:43.880Z,99.90
2018-08-16T01:10:13.909Z,99.90
2018-08-16T01:12:43.929Z,99.90
2018-08-16T01:15:14.683Z,99.90
2018-08-16T01:17:43.873Z,99.90
2018-08-16T01:20:13.287Z,99.90
2018-08-16T01:22:43.149Z,99.90
2018-08-16T01:25:12.765Z,99.90
2018-08-16T01:30:16.397Z,99.90
2018-08-16T01:32:45.574Z,99.90
2018-08-16T01:35:14.741Z,99.90
2018-08-16T01:37:43.882Z,99.90
2018-08-16T01:40:13.033Z,99.90
2018-08-16T01:42:42.218Z,99.90
2018-08-16T01:45:11.408Z,99.90
2018-08-16T01:47:40.545Z,99.90
2018-08-16T01:50:09.725Z,99.90
2018-08-16T01:52:38.889Z,99.90
2018-08-16T01:55:08.234Z,99.90
2018-08-16T01:57:37.393Z,99.90
2018-08-16T02:00:08.569Z,99.90
2018-08-16T02:02:37.769Z,99.90
2018-08-16T02:05:07.501Z,99.90
2018-08-16T02:07:36.889Z,99.90
2018-08-16T02:10:07.186Z,99.90
2018-08-16T02:12:36.354Z,99.90
2018-08-16T02:15:08.666Z,99.90
2018-08-16T02:17:37.877Z,99.90
2018-08-16T02:20:08.497Z,99.90
2018-08-16T02:22:37.713Z,99.90
2018-08-16T02:25:06.855Z,99.90
2018-08-16T02:27:36.116Z,99.90
2018-08-16T02:30:06.568Z,99.90
2018-08-16T02:32:36.010Z,99.90
2018-08-16T02:35:05.535Z,99.90
2018-08-16T02:37:34.734Z,99.90
2018-08-16T02:40:04.318Z,99.90
2018-08-16T02:42:33.484Z,99.90
2018-08-16T02:45:02.590Z,99.90
2018-08-16T02:47:31.717Z,99.90
2018-08-16T02:50:00.798Z,99.90
2018-08-16T02:52:29.903Z,99.90
2018-08-16T02:54:58.977Z,99.90
2018-08-16T02:57:28.116Z,99.90
2018-08-16T02:59:57.219Z,99.90
2018-08-16T03:02:26.358Z,99.90
2018-08-16T03:04:55.458Z,99.90
2018-08-16T03:07:24.616Z,99.90
2018-08-16T03:09:53.724Z,99.90
2018-08-16T03:12:22.826Z,99.90
2018-08-16T03:14:51.893Z,99.90
2018-08-16T03:17:21.032Z,99.90
2018-08-16T03:19:50.141Z,99.90
2018-08-16T03:22:19.209Z,99.90
2018-08-16T03:24:48.320Z,99.90
2018-08-16T03:27:17.390Z,99.90
2018-08-16T03:29:46.501Z,99.90
2018-08-16T03:32:15.603Z,99.90
2018-08-16T03:34:44.721Z,99.90
2018-08-16T03:37:13.841Z,99.90
2018-08-16T03:39:42.942Z,99.90
2018-08-16T03:42:12.098Z,99.90
2018-08-16T03:44:41.209Z,99.90
2018-08-16T03:47:10.365Z,99.90
2018-08-16T03:49:39.445Z,99.90
2018-08-16T03:52:08.585Z,99.90
2018-08-16T03:54:37.693Z,99.90
2018-08-16T03:57:06.837Z,99.90
2018-08-16T03:59:35.957Z,99.90
2018-08-16T04:02:05.035Z,99.90
2018-08-16T04:04:34.162Z,99.90
2018-08-16T04:07:06.349Z,99.90
2018-08-16T04:09:35.511Z,99.90
2018-08-16T04:12:05.082Z,99.90
2018-08-16T04:14:34.218Z,99.90
2018-08-16T04:17:03.318Z,99.90
2018-08-16T04:19:32.421Z,99.90
2018-08-16T04:22:01.557Z,99.90
2018-08-16T04:24:30.661Z,99.90
2018-08-16T04:26:59.807Z,99.90
2018-08-16T04:29:28.932Z,99.90
2018-08-16T04:31:58.008Z,99.90
2018-08-16T04:34:27.114Z,99.90
2018-08-16T04:36:56.217Z,99.90
2018-08-16T04:39:25.321Z,99.90
2018-08-16T04:41:54.496Z,99.90
2018-08-16T04:44:23.477Z,99.90
2018-08-16T04:46:52.613Z,99.90
2018-08-16T04:49:21.821Z,99.90
2018-08-16T04:51:50.961Z,99.90
2018-08-16T04:54:20.034Z,99.90
2018-08-16T04:56:49.454Z,99.90
2018-08-16T04:59:18.520Z,99.90
2018-08-16T05:01:47.629Z,99.90
2018-08-16T05:06:52.890Z,99.90
2018-08-16T05:09:22.649Z,99.90
2018-08-16T05:11:52.834Z,99.90
2018-08-16T05:14:22.792Z,99.90
2018-08-16T05:16:52.829Z,99.90
2018-08-16T05:19:21.955Z,99.90
2018-08-16T05:21:51.053Z,99.90
2018-08-16T05:24:20.159Z,99.90
2018-08-16T05:26:49.302Z,99.90
2018-08-16T05:29:18.405Z,99.90
2018-08-16T05:31:47.687Z,99.90
2018-08-16T05:34:16.777Z,99.90
2018-08-16T05:36:45.912Z,99.90
2018-08-16T05:39:15.049Z,99.90
2018-08-16T05:41:44.601Z,99.90
2018-08-16T05:44:13.704Z,99.90
2018-08-16T05:46:42.930Z,99.90
2018-08-16T05:49:12.973Z,99.90
2018-08-16T05:51:42.213Z,99.90
2018-08-16T05:54:11.333Z,99.90
2018-08-16T05:56:40.677Z,99.90
2018-08-16T05:59:09.986Z,99.90
2018-08-16T06:01:40.109Z,99.90
2018-08-16T06:04:13.773Z,99.90
2018-08-16T06:06:43.408Z,99.90
2018-08-16T06:09:12.597Z,99.90
2018-08-16T06:11:41.777Z,99.90
2018-08-16T06:14:11.165Z,99.90
2018-08-16T06:16:40.471Z,99.90
2018-08-16T06:19:09.630Z,99.90
2018-08-16T06:21:38.872Z,99.90
2018-08-16T06:24:08.135Z,99.90
2018-08-16T06:26:37.273Z,99.90
2018-08-16T06:29:06.540Z,99.90
2018-08-16T06:31:35.722Z,99.90
2018-08-16T06:34:05.081Z,99.90
2018-08-16T06:36:35.480Z,99.90
2018-08-16T06:39:08.695Z,99.90
2018-08-16T06:41:38.242Z,99.90
2018-08-16T06:44:08.322Z,99.90
2018-08-16T06:46:38.257Z,99.90
2018-08-16T06:49:08.366Z,99.90
2018-08-16T06:51:37.716Z,99.90
2018-08-16T06:54:06.842Z,99.90
2018-08-16T06:56:35.950Z,99.90
2018-08-16T06:59:05.182Z,99.90
2018-08-16T07:01:34.325Z,99.90
2018-08-16T07:04:03.522Z,99.90
2018-08-16T07:06:32.690Z,99.90
2018-08-16T07:09:01.795Z,99.90
2018-08-16T07:11:30.879Z,99.70
2018-08-16T07:13:59.989Z,99.40
2018-08-16T07:16:29.660Z,99.70
2018-08-16T07:18:58.925Z,98.30
2018-08-16T07:21:28.009Z,98.10
2018-08-16T07:23:57.122Z,96.10
2018-08-16T07:26:26.886Z,97.10
2018-08-16T07:28:56.623Z,95.90
2018-08-16T07:31:26.450Z,95.30
2018-08-16T07:33:56.295Z,95.40
2018-08-16T07:36:26.825Z,93.60
2018-08-16T07:38:56.771Z,92.10
2018-08-16T07:41:26.405Z,92.90
2018-08-16T07:43:56.137Z,92.40
2018-08-16T07:46:25.773Z,90.10
2018-08-16T07:48:55.492Z,90.40
2018-08-16T07:51:24.856Z,90.10
2018-08-16T07:53:54.597Z,89.80
2018-08-16T07:56:24.652Z,88.00
2018-08-16T07:58:54.581Z,83.30
2018-08-16T08:01:24.147Z,82.70
2018-08-16T08:03:53.964Z,81.40
2018-08-16T08:06:23.848Z,80.80
2018-08-16T08:08:53.673Z,81.40
2018-08-16T08:11:23.954Z,82.70
2018-08-16T08:13:53.904Z,79.60
2018-08-16T08:16:23.051Z,78.50
2018-08-16T08:18:52.413Z,76.20
2018-08-16T08:21:21.538Z,75.90
2018-08-16T08:23:50.638Z,73.90
2018-08-16T08:26:19.790Z,71.50
2018-08-16T08:28:48.924Z,72.50
2018-08-16T08:31:18.048Z,69.60
2018-08-16T08:33:47.426Z,70.00
2018-08-16T08:36:28.376Z,71.40
2018-08-16T08:38:57.853Z,70.40
2018-08-16T08:41:27.065Z,69.80
2018-08-16T08:44:07.984Z,68.40
2018-08-16T08:46:37.266Z,66.90
2018-08-16T08:49:06.658Z,69.80
2018-08-16T08:51:35.802Z,68.10
2018-08-16T08:54:20.804Z,67.10
2018-08-16T08:57:01.195Z,68.00
2018-08-16T08:59:30.497Z,66.40
2018-08-16T09:01:59.390Z,65.40
2018-08-16T09:04:28.474Z,65.20
2018-08-16T09:06:57.635Z,63.80
2018-08-16T09:09:26.756Z,63.50
2018-08-16T09:12:07.129Z,61.50
2018-08-16T09:14:47.536Z,59.70
2018-08-16T09:17:16.646Z,60.50
2018-08-16T09:19:45.756Z,60.80
2018-08-16T09:22:14.873Z,61.00
2018-08-16T09:24:43.997Z,62.70
2018-08-16T09:27:13.142Z,61.50
2018-08-16T09:30:21.653Z,62.10
2018-08-16T09:33:01.897Z,59.80
2018-08-16T09:35:31.127Z,58.30
2018-08-16T09:38:00.445Z,58.10
2018-08-16T09:40:29.616Z,59.10
2018-08-16T09:42:59.592Z,59.50
2018-08-16T09:45:41.844Z,58.20
2018-08-16T09:48:22.225Z,58.20
2018-08-16T09:50:51.353Z,59.00
2018-08-16T09:53:20.510Z,58.30
2018-08-16T09:55:49.678Z,56.70
2018-08-16T09:58:18.843Z,56.40
2018-08-16T10:00:53.289Z,58.10
2018-08-16T10:03:22.406Z,57.50
2018-08-16T10:05:51.526Z,57.60
2018-08-16T10:08:20.677Z,56.90
2018-08-16T10:10:49.801Z,56.20
2018-08-16T10:13:18.910Z,56.60
2018-08-16T10:15:48.028Z,57.80
2018-08-16T10:18:17.180Z,56.60
2018-08-16T10:20:46.352Z,56.50
2018-08-16T10:23:15.987Z,56.50
2018-08-16T10:25:45.551Z,55.80
2018-08-16T10:28:15.765Z,55.20
2018-08-16T10:30:44.937Z,55.80
2018-08-16T10:33:14.078Z,54.00
2018-08-16T10:35:43.241Z,53.50
2018-08-16T10:38:12.384Z,51.30
2018-08-16T10:40:41.529Z,53.20
2018-08-16T10:43:11.074Z,52.40
2018-08-16T10:45:40.896Z,49.00
2018-08-16T10:48:11.361Z,48.70
2018-08-16T10:50:40.885Z,50.80
2018-08-16T10:53:10.196Z,53.40
2018-08-16T10:55:39.690Z,53.00
2018-08-16T10:58:09.545Z,52.30
2018-08-16T11:00:39.346Z,50.80
2018-08-16T11:03:09.258Z,49.30
2018-08-16T11:05:39.089Z,51.30
2018-08-16T11:08:09.673Z,50.90
2018-08-16T11:10:39.273Z,51.00
2018-08-16T11:13:08.759Z,51.70
2018-08-16T11:15:39.549Z,48.30
2018-08-16T11:18:09.538Z,51.20
2018-08-16T11:20:38.952Z,46.30
2018-08-16T11:23:08.109Z,45.40
2018-08-16T11:25:38.267Z,50.10
2018-08-16T11:28:08.729Z,50.20
2018-08-16T11:30:38.365Z,49.70
2018-08-16T11:33:08.193Z,49.20
2018-08-16T11:35:37.373Z,48.90
2018-08-16T11:38:06.625Z,49.10
2018-08-16T11:40:35.795Z,49.20
2018-08-16T11:43:05.010Z,48.10
2018-08-16T11:45:34.161Z,47.50
2018-08-16T11:48:03.379Z,48.30
2018-08-16T11:50:32.514Z,48.00
2018-08-16T11:53:01.655Z,47.80
2018-08-16T11:55:30.754Z,47.50
2018-08-16T11:57:59.884Z,47.30
2018-08-16T12:00:29.035Z,46.80
2018-08-16T12:02:58.243Z,48.30
2018-08-16T12:05:27.342Z,47.00
2018-08-16T12:07:56.477Z,46.20
2018-08-16T12:10:25.607Z,46.30
2018-08-16T12:12:54.722Z,46.50
2018-08-16T12:15:23.842Z,46.90
2018-08-16T12:17:53.002Z,45.20
2018-08-16T12:20:22.157Z,45.40
2018-08-16T12:22:51.286Z,46.10
2018-08-16T12:25:20.402Z,46.30
2018-08-16T12:27:49.535Z,45.40
2018-08-16T12:30:18.641Z,45.30
2018-08-16T12:32:48.341Z,44.50
2018-08-16T12:35:17.410Z,45.30
2018-08-16T12:37:46.561Z,44.20
2018-08-16T12:40:15.717Z,45.70
2018-08-16T12:42:44.834Z,46.10
2018-08-16T12:45:13.980Z,41.80
2018-08-16T12:47:43.091Z,42.80
2018-08-16T12:50:12.194Z,41.30
2018-08-16T12:52:41.318Z,39.20
2018-08-16T12:55:10.403Z,40.20
2018-08-16T12:57:39.510Z,40.60
2018-08-16T13:00:12.950Z,39.70
2018-08-16T13:02:42.090Z,40.50
2018-08-16T13:05:11.262Z,40.90
2018-08-16T13:07:40.777Z,39.10
2018-08-16T13:10:11.148Z,39.30
2018-08-16T13:12:40.210Z,39.40
2018-08-16T13:15:10.255Z,40.10
2018-08-16T13:17:40.058Z,40.80
2018-08-16T13:20:10.374Z,41.50
2018-08-16T13:22:39.623Z,41.40
2018-08-16T13:25:09.410Z,41.40
2018-08-16T13:27:38.616Z,41.00
2018-08-16T13:30:08.191Z,41.50
2018-08-16T13:32:37.565Z,40.60
2018-08-16T13:35:06.804Z,40.20
2018-08-16T13:37:35.934Z,40.70
2018-08-16T13:40:06.407Z,40.20
2018-08-16T13:42:35.497Z,41.00
2018-08-16T13:45:04.744Z,39.90
2018-08-16T13:47:33.966Z,39.10
2018-08-16T13:50:03.145Z,39.10
2018-08-16T13:52:32.306Z,38.90
2018-08-16T13:55:01.520Z,40.40
2018-08-16T13:57:30.662Z,40.30
2018-08-16T13:59:59.782Z,40.50
2018-08-16T14:02:28.877Z,38.00
2018-08-16T14:04:58.036Z,38.10
2018-08-16T14:07:27.165Z,37.90
2018-08-16T14:09:56.307Z,37.80
2018-08-16T14:12:25.486Z,40.80
2018-08-16T14:14:54.601Z,41.30
2018-08-16T14:17:23.717Z,41.00
2018-08-16T14:19:52.848Z,41.80
2018-08-16T14:22:22.088Z,41.80
2018-08-16T14:24:51.417Z,41.70
2018-08-16T14:27:20.542Z,41.40
2018-08-16T14:29:51.268Z,40.40
2018-08-16T14:32:20.591Z,40.80
2018-08-16T14:34:49.778Z,41.00
2018-08-16T14:37:19.405Z,41.30
2018-08-16T14:39:48.890Z,42.20
2018-08-16T14:42:17.992Z,41.80
2018-08-16T14:44:47.171Z,41.50
2018-08-16T14:47:16.273Z,41.20
2018-08-16T14:49:45.492Z,41.30
2018-08-16T14:52:14.718Z,41.20
2018-08-16T14:54:45.070Z,42.30
2018-08-16T14:57:14.182Z,42.20
2018-08-16T14:59:44.973Z,41.30
2018-08-16T15:02:14.047Z,41.70
2018-08-16T15:04:44.725Z,42.20
2018-08-16T15:07:14.321Z,42.30
2018-08-16T15:09:45.349Z,42.40
2018-08-16T15:12:16.115Z,42.70
2018-08-16T15:14:45.456Z,42.50
2018-08-16T15:17:18.949Z,43.10
2018-08-16T15:19:48.203Z,43.10
2018-08-16T15:22:19.778Z,42.20
2018-08-16T15:24:49.078Z,43.20
2018-08-16T15:27:18.288Z,42.50
2018-08-16T15:29:48.050Z,43.30
2018-08-16T15:32:18.226Z,42.90
2018-08-16T15:34:48.306Z,42.70
2018-08-16T15:37:20.712Z,43.50
2018-08-16T15:39:49.810Z,43.50
2018-08-16T15:42:20.249Z,43.00
2018-08-16T15:44:51.662Z,43.00
2018-08-16T15:47:21.224Z,42.80
2018-08-16T15:49:52.092Z,43.20
2018-08-16T15:52:23.345Z,43.30
2018-08-16T15:54:52.549Z,43.30
2018-08-16T15:57:21.701Z,43.30
2018-08-16T15:59:50.800Z,43.50
2018-08-16T16:02:19.948Z,43.80
2018-08-16T16:04:49.057Z,43.50
2018-08-16T16:07:18.325Z,43.80
2018-08-16T16:09:47.554Z,44.00
2018-08-16T16:12:16.676Z,44.00
2018-08-16T16:14:45.776Z,44.30
2018-08-16T16:17:14.971Z,44.10
2018-08-16T16:19:44.092Z,43.80
2018-08-16T16:22:13.221Z,44.10
2018-08-16T16:24:42.359Z,44.60
2018-08-16T16:27:11.482Z,44.40
2018-08-16T16:29:40.597Z,45.00
2018-08-16T16:32:09.770Z,44.60
2018-08-16T16:34:38.877Z,45.00
2018-08-16T16:37:08.045Z,45.40
2018-08-16T16:39:37.133Z,45.50
2018-08-16T16:42:07.137Z,45.10
2018-08-16T16:44:36.276Z,45.00
2018-08-16T16:47:05.869Z,45.40
2018-08-16T16:49:34.999Z,45.70
2018-08-16T16:52:04.426Z,45.60
2018-08-16T16:54:33.573Z,46.30
2018-08-16T16:57:02.749Z,46.30
2018-08-16T16:59:31.893Z,46.30
2018-08-16T17:02:01.082Z,45.70
2018-08-16T17:04:30.173Z,45.60
2018-08-16T17:06:59.306Z,45.80
2018-08-16T17:09:28.469Z,46.00
2018-08-16T17:11:57.625Z,46.30
2018-08-16T17:14:26.738Z,46.00
2018-08-16T17:16:55.881Z,47.10
2018-08-16T17:19:25.028Z,46.40
2018-08-16T17:21:54.148Z,46.60
2018-08-16T17:24:23.306Z,46.90
2018-08-16T17:26:52.433Z,47.10
2018-08-16T17:29:21.557Z,47.40
2018-08-16T17:31:50.696Z,47.70
2018-08-16T17:34:19.877Z,47.90
2018-08-16T17:36:49.043Z,48.30
2018-08-16T17:39:18.122Z,48.70
2018-08-16T17:41:47.229Z,48.90
2018-08-16T17:44:16.376Z,50.10
2018-08-16T17:46:45.882Z,52.60
2018-08-16T17:49:15.089Z,53.90
2018-08-16T17:51:44.230Z,54.80
2018-08-16T17:54:13.350Z,56.00
2018-08-16T17:56:42.529Z,57.10
2018-08-16T17:59:11.629Z,58.50
2018-08-16T18:01:40.740Z,60.00
2018-08-16T18:04:09.904Z,61.00
2018-08-16T18:06:39.058Z,61.20
2018-08-16T18:09:08.839Z,63.30
2018-08-16T18:11:37.960Z,66.60
2018-08-16T18:14:07.109Z,70.40
2018-08-16T18:16:36.209Z,73.00
2018-08-16T18:19:05.397Z,75.30
2018-08-16T18:21:34.592Z,75.30
2018-08-16T18:24:03.854Z,73.60
2018-08-16T18:26:32.982Z,72.50
2018-08-16T18:29:02.118Z,73.50
2018-08-16T18:31:31.571Z,76.60
2018-08-16T18:34:00.866Z,78.70
2018-08-16T18:36:30.028Z,81.70
2018-08-16T18:38:59.157Z,82.60
2018-08-16T18:41:28.291Z,85.30
2018-08-16T18:43:57.428Z,85.20
2018-08-16T18:46:26.570Z,83.40
2018-08-16T18:48:57.175Z,84.40
2018-08-16T18:51:26.959Z,85.80
2018-08-16T18:53:56.190Z,86.10
2018-08-16T18:56:25.305Z,90.20
2018-08-16T18:58:54.462Z,91.30
2018-08-16T19:01:23.689Z,90.50
2018-08-16T19:03:52.950Z,91.90
2018-08-16T19:06:22.129Z,93.30
2018-08-16T19:08:51.293Z,95.10
2018-08-16T19:11:20.430Z,95.20
2018-08-16T19:13:49.758Z,95.00
2018-08-16T19:16:19.101Z,95.70
2018-08-16T19:18:48.251Z,97.30
2018-08-16T19:21:17.357Z,98.80
2018-08-16T19:23:46.485Z,99.20
2018-08-16T19:26:15.593Z,98.70
2018-08-16T19:28:44.793Z,98.10
2018-08-16T19:31:13.937Z,98.80
2018-08-16T19:33:43.106Z,99.90
2018-08-16T19:36:12.280Z,99.90
2018-08-16T19:38:41.350Z,99.90
2018-08-16T19:41:10.533Z,99.90
2018-08-16T19:43:39.724Z,99.90
2018-08-16T19:46:09.221Z,99.90
2018-08-16T19:48:39.207Z,99.90
2018-08-16T19:51:08.840Z,99.90
2018-08-16T19:53:38.002Z,99.90
2018-08-16T19:56:07.202Z,99.90
2018-08-16T19:58:37.105Z,99.90
2018-08-16T20:01:06.276Z,99.90
2018-08-16T20:03:35.450Z,99.90
2018-08-16T20:06:04.574Z,99.90
2018-08-16T20:08:33.693Z,99.90
2018-08-16T20:11:02.840Z,99.50
2018-08-16T20:13:31.931Z,99.80
2018-08-16T20:16:01.070Z,99.90
2018-08-16T20:18:30.209Z,99.90
2018-08-16T20:21:00.284Z,99.90
2018-08-16T20:23:29.510Z,99.90
2018-08-16T20:26:00.047Z,99.90
2018-08-16T20:28:29.157Z,99.90
2018-08-16T20:30:58.997Z,99.90
2018-08-16T20:33:28.482Z,99.90
2018-08-16T20:35:58.976Z,99.90
2018-08-16T20:38:28.544Z,99.90
2018-08-16T20:40:58.113Z,99.90
2018-08-16T20:43:27.214Z,99.90
2018-08-16T20:45:56.410Z,99.90
2018-08-16T20:48:25.993Z,99.90
2018-08-16T20:50:55.281Z,99.90
2018-08-16T20:53:24.453Z,99.90
2018-08-16T20:55:54.553Z,99.90
2018-08-16T20:58:24.316Z,99.90
2018-08-16T21:00:53.623Z,99.90
2018-08-16T21:03:23.186Z,99.90
2018-08-16T21:05:52.293Z,99.90
2018-08-16T21:08:21.478Z,99.90
2018-08-16T21:10:50.617Z,99.90
2018-08-16T21:13:19.717Z,99.90
2018-08-16T21:15:49.066Z,99.90
2018-08-16T21:18:18.188Z,99.90
2018-08-16T21:20:47.401Z,99.90
2018-08-16T21:23:16.519Z,99.90
2018-08-16T21:25:45.635Z,99.90
2018-08-16T21:28:14.769Z,99.90
2018-08-16T21:30:43.888Z,99.90
2018-08-16T21:33:12.989Z,99.90
2018-08-16T21:35:42.445Z,99.90
2018-08-16T21:38:11.640Z,99.90
2018-08-16T21:40:40.991Z,99.90
2018-08-16T21:43:10.249Z,99.90
2018-08-16T21:45:39.429Z,99.90
2018-08-16T21:48:08.628Z,99.90
2018-08-16T21:50:37.745Z,99.90
2018-08-16T21:53:06.851Z,99.90
2018-08-16T21:55:36.010Z,99.90
2018-08-16T21:58:05.474Z,99.90
2018-08-16T22:00:55.063Z,99.90
2018-08-16T22:03:25.413Z,99.90
2018-08-16T22:05:57.806Z,99.90
2018-08-16T22:08:34.007Z,99.90
2018-08-16T22:11:03.125Z,99.90
2018-08-16T22:13:32.604Z,99.90
2018-08-16T22:16:01.741Z,99.90
2018-08-16T22:18:31.405Z,99.90
2018-08-16T22:21:00.868Z,99.90
2018-08-16T22:23:30.329Z,99.90
2018-08-16T22:25:59.495Z,99.90
2018-08-16T22:28:28.623Z,99.90
2018-08-16T22:30:58.461Z,99.90
2018-08-16T22:33:28.050Z,99.90
2018-08-16T22:35:57.218Z,99.90
2018-08-16T22:38:36.029Z,99.90
2018-08-16T22:41:19.293Z,99.90
2018-08-16T22:43:49.523Z,99.90
2018-08-16T22:46:19.991Z,99.90
2018-08-16T22:48:49.348Z,99.90
2018-08-16T22:51:20.766Z,99.90
2018-08-16T22:53:52.712Z,99.90
2018-08-16T22:56:24.018Z,99.90
2018-08-16T22:58:56.977Z,99.90
2018-08-16T23:01:31.902Z,99.90
2018-08-16T23:04:04.197Z,99.90
2018-08-16T23:06:34.185Z,99.90
2018-08-16T23:09:04.748Z,99.90
2018-08-16T23:11:35.352Z,99.90
2018-08-16T23:14:05.817Z,99.90
2018-08-16T23:16:36.320Z,99.90
2018-08-16T23:19:06.516Z,99.90
2018-08-16T23:21:37.321Z,99.90
2018-08-16T23:24:08.037Z,99.90
2018-08-16T23:26:38.776Z,99.90
2018-08-16T23:29:08.213Z,99.90
2018-08-16T23:31:38.277Z,99.90
2018-08-16T23:34:07.386Z,99.90
2018-08-16T23:36:36.491Z,99.90
2018-08-16T23:39:05.891Z,99.90
2018-08-16T23:41:34.992Z,99.90
2018-08-16T23:44:07.355Z,99.90
2018-08-16T23:46:40.201Z,99.90
2018-08-16T23:49:11.393Z,99.90
2018-08-16T23:51:41.902Z,99.90
2018-08-16T23:54:13.441Z,99.90
2018-08-16T23:56:45.363Z,99.90
2018-08-16T23:59:16.453Z,99.90
